Time;durP1;ratioP1;P1;durP2;ratioP2;P2;SDS_P1;SDS_P2;PMS_P1;PMS_P2;Temp;Humidity;BMP_temperature;BMP_pressure;BME280_temperature;BME280_humidity;BME280_pressure;Samples;Min_cycle;Max_cycle;Signal;HPM_P1;HPM_P2
2022/04/29 00:00:44;;;;;;;12.63;7.45;;;12.00;64.60;;;;;;5056217;28;20071;-12
2022/04/29 00:03:12;;;;;;;11.07;7.85;;;12.10;64.40;;;;;;5056511;28;20028;-12
2022/04/29 00:05:42;;;;;;;15.93;8.90;;;12.20;64.40;;;;;;5055869;28;20037;-12
2022/04/29 00:08:09;;;;;;;15.30;8.60;;;12.30;64.50;;;;;;5056045;28;20477;-12
2022/04/29 00:10:36;;;;;;;11.02;6.97;;;12.40;64.20;;;;;;5055444;28;20552;-12
2022/04/29 00:13:04;;;;;;;11.82;6.72;;;12.50;64.00;;;;;;5055962;28;20096;-13
2022/04/29 00:15:30;;;;;;;14.48;8.70;;;12.60;63.70;;;;;;5055569;28;20500;-13
2022/04/29 00:17:57;;;;;;;7.82;5.50;;;12.70;63.30;;;;;;5055818;28;20036;-13
2022/04/29 00:20:23;;;;;;;11.15;7.00;;;12.80;63.30;;;;;;5055371;28;20029;-14
2022/04/29 00:22:50;;;;;;;11.23;7.70;;;12.80;63.40;;;;;;5055883;28;20025;-12
2022/04/29 00:25:16;;;;;;;11.40;7.40;;;12.90;63.20;;;;;;5055403;28;20029;-12
2022/04/29 00:27:42;;;;;;;13.68;7.78;;;12.90;63.00;;;;;;5055499;28;20103;-12
2022/04/29 00:30:10;;;;;;;12.15;8.75;;;13.00;63.80;;;;;;5055449;28;20021;-12
2022/04/29 00:32:38;;;;;;;12.80;7.93;;;13.00;64.20;;;;;;5055362;28;20434;-12
2022/04/29 00:35:06;;;;;;;16.50;10.55;;;13.10;64.10;;;;;;5055286;28;20496;-11
2022/04/29 00:37:32;;;;;;;12.80;9.23;;;13.10;64.60;;;;;;5055597;28;20032;-12
2022/04/29 00:39:59;;;;;;;12.45;8.73;;;13.10;64.60;;;;;;5055489;28;20021;-12
2022/04/29 00:42:25;;;;;;;12.25;7.88;;;13.10;63.90;;;;;;5055265;28;20501;-12
2022/04/29 00:44:51;;;;;;;10.38;7.47;;;13.20;63.80;;;;;;5055764;28;20025;-12
2022/04/29 00:47:20;;;;;;;11.30;7.13;;;13.20;64.30;;;;;;5055093;28;20477;-11
2022/04/29 00:49:47;;;;;;;12.05;6.47;;;13.20;64.30;;;;;;5055357;28;20040;-11
2022/04/29 00:52:16;;;;;;;12.68;8.10;;;13.20;63.90;;;;;;5055006;28;20103;-12
2022/04/29 00:54:48;;;;;;;10.85;7.78;;;13.20;63.90;;;;;;5055461;28;20378;-12
2022/04/29 00:57:20;;;;;;;12.93;8.18;;;13.20;63.60;;;;;;5055691;28;20508;-11
2022/04/29 01:00:04;;;;;;;9.38;6.20;;;13.20;63.50;;;;;;5055573;28;20035;-10
2022/04/29 01:02:32;;;;;;;9.38;6.10;;;13.20;63.20;;;;;;5054710;28;20477;-12
2022/04/29 01:05:09;;;;;;;10.73;6.68;;;13.20;63.00;;;;;;5054237;28;20095;-13
2022/04/29 01:07:37;;;;;;;10.77;8.30;;;13.20;63.50;;;;;;5054754;28;20029;-11
2022/04/29 01:10:04;;;;;;;12.23;7.90;;;13.20;63.60;;;;;;5054660;28;20100;-11
2022/04/29 01:12:37;;;;;;;12.45;6.32;;;13.10;64.50;;;;;;5054335;28;20052;-11
2022/04/29 01:15:14;;;;;;;8.77;5.00;;;13.10;63.70;;;;;;5054405;28;20049;-11
2022/04/29 01:17:43;;;;;;;7.57;4.80;;;13.00;63.30;;;;;;5054589;28;20362;-12
2022/04/29 01:20:12;;;;;;;10.13;5.57;;;13.00;63.20;;;;;;5054331;28;20024;-11
2022/04/29 01:22:38;;;;;;;6.70;4.90;;;12.90;63.00;;;;;;5054513;28;20117;-13
2022/04/29 01:25:04;;;;;;;10.30;5.60;;;12.90;63.00;;;;;;5054287;28;20033;-11
2022/04/29 01:27:30;;;;;;;9.82;6.75;;;12.90;62.80;;;;;;5054653;28;20020;-11
2022/04/29 01:30:11;;;;;;;6.85;4.80;;;12.90;62.70;;;;;;5054577;28;20025;-11
2022/04/29 01:32:39;;;;;;;7.40;5.00;;;12.90;62.50;;;;;;5054051;28;20032;-11
2022/04/29 01:35:07;;;;;;;10.55;6.20;;;12.90;62.40;;;;;;5054137;28;20029;-12
2022/04/29 01:37:33;;;;;;;8.55;5.63;;;12.90;62.30;;;;;;5054158;28;20032;-11
2022/04/29 01:40:01;;;;;;;11.35;6.80;;;12.90;62.20;;;;;;5053997;28;20024;-11
2022/04/29 01:42:27;;;;;;;9.15;5.78;;;12.90;62.20;;;;;;5053819;28;20115;-12
2022/04/29 01:44:54;;;;;;;7.95;5.03;;;12.90;62.00;;;;;;5054021;28;20104;-11
2022/04/29 01:47:20;;;;;;;9.07;5.57;;;12.90;61.90;;;;;;5053946;28;20028;-12
2022/04/29 01:49:46;;;;;;;7.65;4.70;;;12.90;61.80;;;;;;5053896;28;20032;-12
2022/04/29 01:52:13;;;;;;;8.40;5.35;;;12.90;61.60;;;;;;5054040;28;20488;-11
2022/04/29 01:54:39;;;;;;;7.03;4.80;;;12.90;61.40;;;;;;5054190;28;20033;-12
2022/04/29 01:57:08;;;;;;;7.15;4.97;;;12.90;61.40;;;;;;5053762;28;20039;-11
2022/04/29 01:59:35;;;;;;;9.60;6.05;;;13.00;61.20;;;;;;5054063;28;20040;-10
2022/04/29 02:02:08;;;;;;;9.55;5.80;;;13.00;61.10;;;;;;5053914;28;20021;-11
2022/04/29 02:04:35;;;;;;;7.50;5.53;;;13.00;61.20;;;;;;5053517;28;20492;-11
2022/04/29 02:07:03;;;;;;;7.55;5.38;;;13.00;61.50;;;;;;5053894;28;20028;-11
2022/04/29 02:09:29;;;;;;;7.65;5.22;;;12.90;61.60;;;;;;5053455;28;20108;-11
2022/04/29 02:12:04;;;;;;;6.97;4.68;;;12.90;61.30;;;;;;5053743;28;20017;-11
2022/04/29 02:14:39;;;;;;;7.70;5.43;;;12.90;61.20;;;;;;5053199;28;20076;-11
2022/04/29 02:17:07;;;;;;;7.20;4.97;;;12.90;61.20;;;;;;5053684;28;20029;-11
2022/04/29 02:19:35;;;;;;;8.90;4.75;;;12.80;61.10;;;;;;5052183;28;20021;-11
2022/04/29 02:22:02;;;;;;;10.18;5.70;;;12.80;60.90;;;;;;5053495;28;20466;-12
2022/04/29 02:24:28;;;;;;;10.52;6.00;;;12.80;60.90;;;;;;5053313;28;20155;-12
2022/04/29 02:26:55;;;;;;;9.15;6.40;;;12.80;60.70;;;;;;5053882;28;20505;-11
2022/04/29 02:29:22;;;;;;;9.35;5.93;;;12.80;60.70;;;;;;5053244;28;20515;-11
2022/04/29 02:31:52;;;;;;;7.80;5.25;;;12.80;60.50;;;;;;5053212;28;20495;-12
2022/04/29 02:34:19;;;;;;;7.22;4.40;;;12.80;60.40;;;;;;5053335;28;20028;-11
2022/04/29 02:36:45;;;;;;;10.30;6.80;;;12.80;60.30;;;;;;5053472;28;20036;-12
2022/04/29 02:39:11;;;;;;;12.07;6.65;;;12.70;60.30;;;;;;5053065;28;20059;-11
2022/04/29 02:41:37;;;;;;;9.68;5.68;;;12.70;60.20;;;;;;5052946;28;20025;-12
2022/04/29 02:44:03;;;;;;;7.22;4.75;;;12.70;60.10;;;;;;5053105;28;20029;-11
2022/04/29 02:46:29;;;;;;;8.23;5.47;;;12.70;60.10;;;;;;5052929;28;20039;-11
2022/04/29 02:48:55;;;;;;;8.57;4.55;;;12.60;60.10;;;;;;5053027;28;20028;-11
2022/04/29 02:51:21;;;;;;;6.43;4.22;;;12.50;60.10;;;;;;5053213;28;20071;-12
2022/04/29 02:53:47;;;;;;;5.93;4.38;;;12.40;60.20;;;;;;5052951;28;20021;-11
2022/04/29 02:56:13;;;;;;;10.57;6.40;;;12.40;60.40;;;;;;5053306;28;20021;-11
2022/04/29 02:58:39;;;;;;;9.35;5.40;;;12.40;60.60;;;;;;5052868;28;20507;-11
2022/04/29 03:01:05;;;;;;;7.55;5.00;;;12.30;60.70;;;;;;5053123;28;20039;-11
2022/04/29 03:03:31;;;;;;;7.07;5.18;;;12.20;60.80;;;;;;5053060;28;20108;-12
2022/04/29 03:05:56;;;;;;;8.88;5.22;;;12.10;61.00;;;;;;5053162;28;20033;-12
2022/04/29 03:08:23;;;;;;;9.15;6.45;;;12.00;61.20;;;;;;5051434;28;20032;-11
2022/04/29 03:10:48;;;;;;;7.75;5.40;;;11.90;61.50;;;;;;5052998;28;20024;-12
2022/04/29 03:13:17;;;;;;;8.40;5.47;;;11.90;61.90;;;;;;5052730;28;20396;-12
2022/04/29 03:15:43;;;;;;;10.35;6.20;;;11.80;62.40;;;;;;5052642;28;20175;-11
2022/04/29 03:18:18;;;;;;;8.10;5.38;;;11.70;62.60;;;;;;5052820;28;20057;-11
2022/04/29 03:20:46;;;;;;;8.35;5.03;;;11.70;62.30;;;;;;5052693;28;20096;-12
2022/04/29 03:23:13;;;;;;;11.55;7.65;;;11.70;62.30;;;;;;5052674;28;20040;-12
2022/04/29 03:25:42;;;;;;;12.68;7.90;;;11.60;62.50;;;;;;5052877;28;20504;-11
2022/04/29 03:28:09;;;;;;;11.02;6.18;;;11.50;62.50;;;;;;5054726;28;20525;-11
2022/04/29 03:30:36;;;;;;;12.45;7.70;;;11.50;62.80;;;;;;5056597;28;20047;-11
2022/04/29 03:33:05;;;;;;;10.05;6.40;;;11.40;62.90;;;;;;5056809;28;20051;-11
2022/04/29 03:35:31;;;;;;;9.52;5.57;;;11.30;63.10;;;;;;5056444;28;20075;-11
2022/04/29 03:37:57;;;;;;;9.23;6.50;;;11.20;63.40;;;;;;5056665;28;20025;-11
2022/04/29 03:40:25;;;;;;;9.07;5.38;;;11.10;63.60;;;;;;5056299;28;20040;-11
2022/04/29 03:42:56;;;;;;;11.77;7.78;;;11.00;63.90;;;;;;5056549;28;20041;-11
2022/04/29 03:45:25;;;;;;;7.32;4.78;;;10.90;64.20;;;;;;5056798;28;20116;-11
2022/04/29 03:47:51;;;;;;;9.68;6.63;;;10.90;64.40;;;;;;5056401;28;20060;-11
2022/04/29 03:50:18;;;;;;;12.95;6.18;;;10.80;64.80;;;;;;5056060;28;20497;-11
2022/04/29 03:52:52;;;;;;;10.05;6.82;;;10.70;65.00;;;;;;5056110;28;20375;-11
2022/04/29 03:55:20;;;;;;;10.82;7.20;;;10.60;65.60;;;;;;5054870;28;20047;-10
2022/04/29 03:57:46;;;;;;;10.75;6.85;;;10.50;66.30;;;;;;5056368;28;20035;-11
2022/04/29 04:00:13;;;;;;;9.23;5.03;;;10.40;66.50;;;;;;5056521;28;20447;-11
2022/04/29 04:02:39;;;;;;;11.50;5.15;;;10.30;66.20;;;;;;5056085;28;20040;-12
2022/04/29 04:05:06;;;;;;;7.85;4.82;;;10.20;66.40;;;;;;5055888;28;20064;-12
2022/04/29 04:07:32;;;;;;;7.28;5.10;;;10.20;66.50;;;;;;5056178;28;20037;-12
2022/04/29 04:09:58;;;;;;;8.85;5.60;;;10.20;66.40;;;;;;5054494;28;20123;-13
2022/04/29 04:12:24;;;;;;;10.82;7.10;;;10.10;66.50;;;;;;5055554;28;20040;-12
2022/04/29 04:14:51;;;;;;;10.30;6.75;;;10.00;67.20;;;;;;5055523;28;20048;-12
2022/04/29 04:17:17;;;;;;;10.30;6.60;;;9.90;67.30;;;;;;5055752;28;20032;-13
2022/04/29 04:19:43;;;;;;;9.93;6.53;;;9.90;67.60;;;;;;5055873;28;20032;-12
2022/04/29 04:22:09;;;;;;;9.07;5.93;;;9.80;67.70;;;;;;5054394;28;20039;-12
2022/04/29 04:24:36;;;;;;;9.70;6.03;;;9.70;67.60;;;;;;5055600;28;20079;-12
2022/04/29 04:27:02;;;;;;;13.13;7.15;;;9.60;67.60;;;;;;5055779;28;20053;-12
2022/04/29 04:29:27;;;;;;;10.65;7.18;;;9.60;68.30;;;;;;5055456;28;20497;-12
2022/04/29 04:31:53;;;;;;;8.70;6.28;;;9.60;68.00;;;;;;5055710;28;20021;-11
2022/04/29 04:37:07;;;;;;;12.75;7.28;;;9.60;68.10;;;;;;5055454;28;20153;-12
2022/04/29 04:39:33;;;;;;;10.70;7.00;;;9.70;68.20;;;;;;5054228;28;20044;-12
2022/04/29 04:41:58;;;;;;;13.00;7.18;;;9.70;68.20;;;;;;5055142;28;20026;-12
2022/04/29 04:44:24;;;;;;;17.27;7.80;;;9.70;68.20;;;;;;5055228;28;20039;-12
2022/04/29 04:46:50;;;;;;;13.00;7.88;;;9.80;68.10;;;;;;5055445;28;20032;-12
2022/04/29 04:49:16;;;;;;;19.58;8.57;;;9.90;68.00;;;;;;5055100;28;20489;-12
2022/04/29 04:51:42;;;;;;;10.90;7.18;;;9.90;68.00;;;;;;5055343;28;20021;-12
2022/04/29 04:54:08;;;;;;;12.32;8.25;;;10.00;68.20;;;;;;5055358;28;20407;-12
2022/04/29 04:56:33;;;;;;;12.70;7.70;;;10.10;68.10;;;;;;5054702;28;20040;-11
2022/04/29 04:59:00;;;;;;;13.35;9.10;;;10.20;68.00;;;;;;5054887;28;20028;-13
2022/04/29 05:01:26;;;;;;;13.82;9.32;;;10.40;68.60;;;;;;5054730;28;20021;-11
2022/04/29 05:03:51;;;;;;;13.88;9.10;;;10.40;67.90;;;;;;5055160;28;20036;-12
2022/04/29 05:06:18;;;;;;;13.07;7.90;;;10.60;68.60;;;;;;5054820;28;20021;-12
2022/04/29 05:08:43;;;;;;;16.77;9.73;;;10.70;68.00;;;;;;5055006;28;20495;-12
2022/04/29 05:11:09;;;;;;;11.65;8.27;;;10.90;67.80;;;;;;5054564;28;20107;-11
2022/04/29 05:13:35;;;;;;;13.18;8.13;;;11.00;68.00;;;;;;5055172;28;20054;-13
2022/04/29 05:16:01;;;;;;;14.23;9.90;;;11.20;67.80;;;;;;5054907;28;20071;-12
2022/04/29 05:18:26;;;;;;;16.13;9.10;;;11.30;67.90;;;;;;5054379;28;20443;-12
2022/04/29 05:20:52;;;;;;;20.70;12.32;;;11.50;67.70;;;;;;5054624;28;20021;-9
2022/04/29 05:23:18;;;;;;;13.65;9.38;;;11.80;67.80;;;;;;5054425;28;20052;-11
2022/04/29 05:25:44;;;;;;;17.30;11.50;;;11.90;68.50;;;;;;5054436;28;20025;-11
2022/04/29 05:28:10;;;;;;;13.27;8.75;;;12.20;68.20;;;;;;5054337;28;20057;-10
2022/04/29 05:30:36;;;;;;;11.82;8.18;;;12.50;68.20;;;;;;5054366;28;20095;-11
2022/04/29 05:33:02;;;;;;;13.80;8.77;;;12.80;68.20;;;;;;5054323;28;20025;-11
2022/04/29 05:35:28;;;;;;;12.55;8.13;;;13.00;67.80;;;;;;5055042;28;20107;-11
2022/04/29 05:37:55;;;;;;;14.40;9.77;;;13.30;67.40;;;;;;5054270;28;20501;-12
2022/04/29 05:43:07;;;;;;;15.70;11.23;;;13.90;67.00;;;;;;5054618;28;20208;-12
2022/04/29 05:45:33;;;;;;;13.93;10.50;;;14.20;67.90;;;;;;5054249;28;20028;-12
2022/04/29 05:47:59;;;;;;;11.40;7.97;;;14.40;68.10;;;;;;5054075;28;20029;-12
2022/04/29 05:50:25;;;;;;;12.82;9.13;;;14.70;67.30;;;;;;5053261;28;20029;-12
2022/04/29 05:52:51;;;;;;;10.52;7.80;;;14.90;67.10;;;;;;5053844;28;20021;-13
2022/04/29 05:55:17;;;;;;;11.52;7.28;;;15.20;66.80;;;;;;5054463;28;20017;-11
2022/04/29 05:57:43;;;;;;;11.00;7.30;;;15.40;66.10;;;;;;5053803;28;20535;-13
2022/04/29 06:00:09;;;;;;;15.00;8.13;;;15.70;65.80;;;;;;5053988;28;20025;-13
2022/04/29 06:02:38;;;;;;;11.68;7.75;;;15.80;64.90;;;;;;5052251;28;20032;-12
2022/04/29 06:05:04;;;;;;;10.95;7.68;;;15.90;63.60;;;;;;5052408;28;20489;-11
2022/04/29 06:07:30;;;;;;;10.15;5.30;;;16.10;63.20;;;;;;5053599;28;20027;-12
2022/04/29 06:09:56;;;;;;;8.82;6.40;;;16.30;62.90;;;;;;5053442;28;20017;-12
2022/04/29 06:12:22;;;;;;;8.25;6.25;;;16.50;60.90;;;;;;5053278;28;20112;-13
2022/04/29 06:14:48;;;;;;;8.98;6.40;;;16.90;60.50;;;;;;5053160;28;20052;-12
2022/04/29 06:17:14;;;;;;;7.63;5.38;;;17.20;58.60;;;;;;5053459;28;20526;-11
2022/04/29 06:19:40;;;;;;;9.23;5.45;;;17.50;58.70;;;;;;5053586;28;20063;-12
2022/04/29 06:22:06;;;;;;;8.75;4.97;;;17.90;57.70;;;;;;5053423;28;20032;-12
2022/04/29 06:24:33;;;;;;;7.68;5.70;;;18.30;57.30;;;;;;5051810;28;20029;-12
2022/04/29 06:27:01;;;;;;;7.47;5.55;;;18.70;55.60;;;;;;5053909;28;20029;-11
2022/04/29 06:29:27;;;;;;;6.72;5.03;;;19.10;54.30;;;;;;5053653;28;20481;-12
2022/04/29 06:31:53;;;;;;;10.43;6.72;;;19.40;54.40;;;;;;5053175;28;20396;-11
2022/04/29 06:34:19;;;;;;;8.20;5.40;;;19.90;53.40;;;;;;5053212;28;20496;-11
2022/04/29 06:36:45;;;;;;;7.78;5.60;;;20.40;51.70;;;;;;5053129;28;20037;-11
2022/04/29 06:39:11;;;;;;;9.02;6.68;;;20.80;50.40;;;;;;5053413;28;20029;-12
2022/04/29 06:41:37;;;;;;;8.52;6.25;;;21.10;49.60;;;;;;5051667;28;20032;-11
2022/04/29 06:44:03;;;;;;;9.43;6.20;;;21.40;48.30;;;;;;5053044;28;20082;-11
2022/04/29 06:46:30;;;;;;;6.15;4.72;;;21.70;44.70;;;;;;5053142;28;20027;-12
2022/04/29 06:48:55;;;;;;;7.18;5.30;;;21.90;46.50;;;;;;5053290;28;20025;-11
2022/04/29 06:51:23;;;;;;;5.95;4.20;;;22.20;43.50;;;;;;5052948;28;20029;-12
2022/04/29 06:53:49;;;;;;;5.97;4.20;;;22.30;42.40;;;;;;5051643;28;20025;-10
2022/04/29 06:56:15;;;;;;;6.28;4.43;;;22.50;41.50;;;;;;5052811;28;20032;-11
2022/04/29 06:58:41;;;;;;;7.88;4.55;;;22.60;39.60;;;;;;5053166;28;20025;-13
2022/04/29 07:01:07;;;;;;;5.63;4.00;;;22.80;40.10;;;;;;5052837;28;20533;-11
2022/04/29 07:03:33;;;;;;;8.10;4.20;;;22.90;40.00;;;;;;5056048;28;20033;-12
2022/04/29 07:06:01;;;;;;;4.10;3.58;;;22.90;37.60;;;;;;5055659;28;20397;-11
2022/04/29 07:08:30;;;;;;;6.72;3.97;;;23.00;38.40;;;;;;5056902;28;20400;-10
2022/04/29 07:10:56;;;;;;;6.57;3.90;;;23.20;36.80;;;;;;5056776;28;20522;-11
2022/04/29 07:13:22;;;;;;;5.30;3.83;;;23.20;36.50;;;;;;5057261;28;20025;-11
2022/04/29 07:15:49;;;;;;;4.78;3.83;;;23.20;37.20;;;;;;5055390;28;20084;-12
2022/04/29 07:18:17;;;;;;;6.13;3.72;;;23.40;37.50;;;;;;5056528;28;20036;-12
2022/04/29 07:20:44;;;;;;;5.65;3.80;;;23.60;35.80;;;;;;5057150;28;20025;-11
2022/04/29 07:23:10;;;;;;;5.05;4.13;;;23.60;35.40;;;;;;5057262;28;20033;-11
2022/04/29 07:25:36;;;;;;;6.72;3.75;;;23.60;35.40;;;;;;5056479;28;20056;-10
2022/04/29 07:28:02;;;;;;;6.10;3.80;;;23.60;35.50;;;;;;5056819;28;20527;-10
2022/04/29 07:30:27;;;;;;;4.40;3.70;;;23.70;35.60;;;;;;5056338;28;20075;-10
2022/04/29 07:32:54;;;;;;;8.68;4.40;;;23.70;34.60;;;;;;5056925;28;20025;-12
2022/04/29 07:43:36;;;;;;;8.07;3.60;;;23.10;36.00;;;;;;5056755;28;20409;-11
2022/04/29 07:46:04;;;;;;;4.70;3.70;;;22.60;33.60;;;;;;5056492;28;20025;-10
2022/04/29 07:48:30;;;;;;;5.85;3.45;;;22.30;34.00;;;;;;5056655;28;20178;-12
2022/04/29 07:50:56;;;;;;;6.40;3.75;;;22.30;35.20;;;;;;5056193;28;20017;-11
2022/04/29 07:53:22;;;;;;;5.65;3.80;;;22.40;34.10;;;;;;5056441;28;20036;-11
2022/04/29 07:55:48;;;;;;;8.38;4.15;;;22.40;34.70;;;;;;5056639;28;20024;-11
2022/04/29 07:58:14;;;;;;;6.15;3.92;;;22.50;35.30;;;;;;5056524;28;20021;-11
2022/04/29 08:00:41;;;;;;;4.85;3.72;;;22.60;35.10;;;;;;5056080;28;20029;-11
2022/04/29 08:03:07;;;;;;;5.55;3.70;;;22.40;34.60;;;;;;5055934;28;20028;-11
2022/04/29 08:05:33;;;;;;;4.80;3.50;;;22.40;34.90;;;;;;5056159;28;20029;-12
2022/04/29 08:08:01;;;;;;;5.93;3.42;;;22.40;35.00;;;;;;5055849;28;20029;-11
2022/04/29 08:10:32;;;;;;;8.88;3.70;;;22.50;35.00;;;;;;5055522;28;20029;-11
2022/04/29 08:12:59;;;;;;;4.78;3.40;;;22.60;35.80;;;;;;5055535;28;20021;-11
2022/04/29 08:15:27;;;;;;;6.95;3.90;;;22.90;35.30;;;;;;5056332;28;20053;-12
2022/04/29 08:17:53;;;;;;;4.75;3.63;;;23.20;35.30;;;;;;5055903;28;20121;-12
2022/04/29 08:20:20;;;;;;;6.93;4.10;;;23.40;34.60;;;;;;5055334;28;20025;-12
2022/04/29 08:22:47;;;;;;;7.53;3.95;;;23.60;33.90;;;;;;5055909;28;20075;-10
2022/04/29 08:25:15;;;;;;;6.72;4.10;;;23.70;33.80;;;;;;5055455;28;20086;-11
2022/04/29 08:27:41;;;;;;;8.63;4.05;;;23.80;33.30;;;;;;5055488;28;20036;-10
2022/04/29 08:30:08;;;;;;;6.40;3.55;;;23.70;33.70;;;;;;5055434;28;20481;-11
2022/04/29 08:32:41;;;;;;;5.85;3.78;;;23.80;33.80;;;;;;5055178;28;20029;-11
2022/04/29 08:35:12;;;;;;;5.13;3.80;;;23.80;33.90;;;;;;5055646;28;20021;-11
2022/04/29 08:37:42;;;;;;;6.55;4.30;;;23.80;33.60;;;;;;5055904;28;20024;-11
2022/04/29 08:40:10;;;;;;;7.70;4.10;;;23.70;33.40;;;;;;5055191;28;20025;-10
2022/04/29 08:42:37;;;;;;;5.70;3.70;;;23.50;34.40;;;;;;5054894;28;20039;-11
2022/04/29 08:45:08;;;;;;;7.35;4.00;;;23.60;34.00;;;;;;5055402;28;20039;-12
2022/04/29 08:47:37;;;;;;;5.60;3.83;;;23.80;32.00;;;;;;5055490;28;20031;-11
2022/04/29 08:50:11;;;;;;;4.72;3.80;;;23.90;32.20;;;;;;5055414;28;20025;-12
2022/04/29 08:52:37;;;;;;;4.47;3.22;;;24.00;31.60;;;;;;5054845;28;20029;-11
2022/04/29 09:00:38;;;;;;;6.15;3.88;;;24.10;34.00;;;;;;5054931;28;20508;-11
2022/04/29 09:03:15;;;;;;;6.57;4.07;;;24.00;33.00;;;;;;5054851;28;20033;-11
2022/04/29 09:05:42;;;;;;;4.55;3.58;;;24.10;32.90;;;;;;5054813;28;20385;-11
2022/04/29 09:08:12;;;;;;;6.55;3.47;;;24.40;32.50;;;;;;5054436;28;20041;-12
2022/04/29 09:10:48;;;;;;;5.40;3.58;;;24.50;33.40;;;;;;5054567;28;20040;-11
2022/04/29 09:13:20;;;;;;;5.78;3.88;;;24.70;33.00;;;;;;5055001;28;20033;-11
2022/04/29 09:15:58;;;;;;;4.93;3.63;;;24.90;32.70;;;;;;5054430;28;20048;-11
2022/04/29 09:18:49;;;;;;;4.15;3.60;;;24.90;33.20;;;;;;5054639;28;20032;-11
2022/04/29 09:21:16;;;;;;;4.95;3.35;;;25.00;31.40;;;;;;5049731;28;20037;-12
2022/04/29 09:23:54;;;;;;;9.00;4.03;;;25.30;33.00;;;;;;5054345;28;20044;-11
2022/04/29 09:26:23;;;;;;;4.88;3.90;;;25.50;32.00;;;;;;5053397;28;20481;-12
2022/04/29 09:28:54;;;;;;;6.40;4.05;;;25.70;32.10;;;;;;5054337;28;20025;-11
2022/04/29 09:31:21;;;;;;;6.15;4.00;;;25.80;31.30;;;;;;5054251;28;20476;-12
2022/04/29 09:33:58;;;;;;;5.30;3.90;;;25.70;30.90;;;;;;5054192;28;20029;-11
2022/04/29 09:36:27;;;;;;;5.40;3.80;;;25.40;29.80;;;;;;5054244;28;20024;-11
2022/04/29 09:41:39;;;;;;;5.30;3.83;;;24.90;31.40;;;;;;5054246;28;20516;-12
2022/04/29 09:44:05;;;;;;;4.80;3.72;;;25.00;32.30;;;;;;5054815;28;20033;-12
2022/04/29 09:46:32;;;;;;;7.22;4.32;;;25.20;32.40;;;;;;5053712;28;20032;-11
2022/04/29 09:49:09;;;;;;;7.32;4.18;;;25.30;32.60;;;;;;5054129;28;20029;-11
2022/04/29 09:51:39;;;;;;;5.07;4.05;;;25.40;33.70;;;;;;5053831;28;20027;-11
2022/04/29 09:54:24;;;;;;;7.07;4.28;;;25.70;32.10;;;;;;5054059;28;20481;-10
2022/04/29 09:57:13;;;;;;;5.30;4.10;;;25.90;32.00;;;;;;5053739;28;20491;-11
2022/04/29 09:59:58;;;;;;;5.68;4.07;;;25.80;30.90;;;;;;5053816;28;20029;-12
2022/04/29 10:02:26;;;;;;;6.22;4.22;;;25.90;32.50;;;;;;5053819;28;20031;-11
2022/04/29 10:04:54;;;;;;;5.45;3.90;;;25.90;33.60;;;;;;5054289;28;20473;-11
2022/04/29 10:07:22;;;;;;;8.27;4.07;;;26.10;31.80;;;;;;5053946;28;20033;-11
2022/04/29 10:09:53;;;;;;;5.50;3.83;;;26.40;31.70;;;;;;5053757;28;20114;-15
2022/04/29 10:12:21;;;;;;;6.28;4.32;;;26.70;30.30;;;;;;5053409;28;20021;-11
2022/04/29 10:14:49;;;;;;;5.47;3.83;;;27.00;29.50;;;;;;5053429;28;20080;-11
2022/04/29 10:22:53;;;;;;;4.78;4.07;;;27.90;28.30;;;;;;5053757;28;20078;-11
2022/04/29 10:25:25;;;;;;;7.35;4.13;;;28.10;27.90;;;;;;5053286;28;20075;-11
2022/04/29 10:27:52;;;;;;;5.97;4.10;;;28.20;28.30;;;;;;5053536;28;20013;-12
2022/04/29 10:30:31;;;;;;;6.15;3.60;;;28.40;28.30;;;;;;5053403;28;20032;-11
2022/04/29 10:33:03;;;;;;;9.15;4.40;;;28.60;28.40;;;;;;5054196;28;20025;-11
2022/04/29 10:35:45;;;;;;;7.38;4.07;;;28.70;28.60;;;;;;5053189;28;20108;-11
2022/04/29 10:38:15;;;;;;;6.55;4.00;;;28.70;28.20;;;;;;5053408;28;20124;-10
2022/04/29 10:40:42;;;;;;;4.30;3.65;;;28.80;28.80;;;;;;5052958;28;20025;-11
2022/04/29 10:43:10;;;;;;;7.50;4.15;;;29.10;29.10;;;;;;5053106;28;20044;-12
2022/04/29 10:46:05;;;;;;;5.00;4.00;;;29.40;28.70;;;;;;5053047;28;20085;-12
2022/04/29 10:48:35;;;;;;;4.63;4.05;;;29.70;28.10;;;;;;5053156;28;20033;-11
2022/04/29 10:51:26;;;;;;;5.63;4.10;;;30.00;27.00;;;;;;5053547;28;20355;-11
2022/04/29 10:53:55;;;;;;;7.72;4.15;;;30.20;26.90;;;;;;5052933;28;20029;-11
2022/04/29 10:56:30;;;;;;;7.43;4.57;;;30.40;27.30;;;;;;5052606;28;20025;-11
2022/04/29 10:59:19;;;;;;;7.00;3.97;;;30.50;26.70;;;;;;5052773;28;20055;-11
2022/04/29 11:01:50;;;;;;;5.75;4.35;;;30.60;27.40;;;;;;5052805;28;20025;-11
2022/04/29 11:04:16;;;;;;;7.70;4.35;;;30.70;27.90;;;;;;5052910;28;20036;-12
2022/04/29 11:06:45;;;;;;;6.32;4.00;;;30.40;27.90;;;;;;5053145;28;20492;-11
2022/04/29 11:09:30;;;;;;;5.85;4.10;;;30.40;27.70;;;;;;5053413;28;20465;-11
2022/04/29 11:11:58;;;;;;;6.00;3.83;;;30.50;26.60;;;;;;5052629;28;20440;-12
2022/04/29 11:14:25;;;;;;;5.45;4.32;;;30.70;27.70;;;;;;5052144;28;20409;-11
2022/04/29 11:16:52;;;;;;;5.60;4.13;;;31.00;27.50;;;;;;5051868;28;20059;-11
2022/04/29 11:19:35;;;;;;;6.95;4.55;;;31.40;27.50;;;;;;5051794;28;20040;-12
2022/04/29 11:24:50;;;;;;;6.40;4.10;;;31.90;26.10;;;;;;5052112;28;20106;-12
2022/04/29 11:27:31;;;;;;;6.15;4.18;;;31.90;26.50;;;;;;5051921;28;20025;-11
2022/04/29 11:30:01;;;;;;;5.32;4.20;;;32.10;25.90;;;;;;5051681;28;20477;-12
2022/04/29 11:32:28;;;;;;;9.65;4.47;;;32.40;25.70;;;;;;5051507;28;20029;-12
2022/04/29 11:34:55;;;;;;;6.25;4.40;;;32.40;25.60;;;;;;5050356;28;20056;-11
2022/04/29 11:37:23;;;;;;;5.28;4.00;;;32.50;25.00;;;;;;5051949;28;20021;-12
2022/04/29 11:39:54;;;;;;;6.22;4.07;;;32.60;25.50;;;;;;5051942;28;20104;-12
2022/04/29 11:42:20;;;;;;;6.35;4.20;;;32.70;25.50;;;;;;5051655;28;20100;-11
2022/04/29 11:44:49;;;;;;;4.13;3.70;;;32.90;24.90;;;;;;5052085;28;20482;-12
2022/04/29 11:47:25;;;;;;;5.88;4.20;;;33.00;25.20;;;;;;5051730;28;20028;-12
2022/04/29 11:49:52;;;;;;;6.25;4.63;;;33.30;24.20;;;;;;5054736;28;20384;-12
2022/04/29 11:52:26;;;;;;;8.35;4.10;;;33.50;24.70;;;;;;5054874;28;20036;-11
2022/04/29 11:54:57;;;;;;;6.40;3.88;;;33.60;24.60;;;;;;5055199;28;20037;-10
2022/04/29 11:57:26;;;;;;;5.13;4.18;;;33.80;24.40;;;;;;5055089;28;20103;-12
2022/04/29 11:59:52;;;;;;;6.50;4.10;;;34.10;24.40;;;;;;5054956;28;20021;-11
2022/04/29 12:02:20;;;;;;;5.30;4.15;;;34.40;23.70;;;;;;5054452;28;20021;-11
2022/04/29 12:05:03;;;;;;;6.68;4.90;;;34.50;23.60;;;;;;5053547;28;20029;-11
2022/04/29 12:07:41;;;;;;;6.47;3.95;;;34.60;21.70;;;;;;5054759;28;20041;-11
2022/04/29 12:10:20;;;;;;;6.70;4.05;;;34.40;22.70;;;;;;5054502;28;20431;-11
2022/04/29 12:12:47;;;;;;;7.15;4.13;;;34.30;23.00;;;;;;5054657;28;20033;-13
2022/04/29 12:15:18;;;;;;;7.20;4.60;;;34.40;23.10;;;;;;4998439;28;1623454;-13
2022/04/29 12:17:44;;;;;;;4.90;4.00;;;34.30;24.30;;;;;;5055964;28;20358;-11
2022/04/29 12:20:17;;;;;;;6.07;4.63;;;34.20;24.30;;;;;;5055941;28;20017;-11
2022/04/29 12:22:43;;;;;;;;;;;34.00;24.80;;;;;;5056079;28;20029;-11
2022/04/29 12:25:18;;;;;;;4.85;3.88;;;33.60;26.00;;;;;;5055483;28;19995;-12
2022/04/29 12:27:44;;;;;;;8.32;4.22;;;33.80;24.30;;;;;;5056657;28;20021;-11
2022/04/29 12:36:09;;;;;;;5.55;4.57;;;34.30;24.20;;;;;;5056028;28;20067;-11
2022/04/29 12:38:40;;;;;;;5.28;4.20;;;34.10;23.60;;;;;;5055244;28;20047;-11
2022/04/29 12:41:27;;;;;;;6.63;4.72;;;34.10;23.90;;;;;;5055159;28;20116;-12
2022/04/29 12:44:06;;;;;;;5.75;4.13;;;33.50;23.30;;;;;;5055250;28;20040;-12
2022/04/29 12:46:32;;;;;;;4.38;3.80;;;32.40;24.20;;;;;;5054997;28;20469;-11
2022/04/29 12:48:57;;;;;;;6.65;3.90;;;32.20;24.20;;;;;;5054210;28;20067;-12
2022/04/29 12:51:25;;;;;;;6.60;3.90;;;32.30;24.40;;;;;;5055286;28;20033;-11
2022/04/29 12:53:54;;;;;;;6.57;3.65;;;32.60;24.40;;;;;;5055041;28;20104;-11
2022/04/29 12:56:33;;;;;;;5.43;4.10;;;32.90;24.20;;;;;;5054632;28;20100;-10
2022/04/29 12:59:01;;;;;;;4.47;3.92;;;32.80;24.30;;;;;;5053729;28;20112;-11
2022/04/29 13:01:36;;;;;;;6.70;4.32;;;32.70;24.70;;;;;;5053918;28;20477;-12
2022/04/29 13:04:03;;;;;;;5.10;4.20;;;32.30;25.20;;;;;;5055173;28;20029;-12
2022/04/29 13:06:28;;;;;;;4.22;3.45;;;32.30;25.10;;;;;;5054495;28;20059;-12
2022/04/29 13:08:55;;;;;;;6.45;3.70;;;32.30;25.50;;;;;;5054702;28;20061;-12
2022/04/29 13:11:22;;;;;;;5.13;3.60;;;32.50;25.30;;;;;;5054922;28;20032;-12
2022/04/29 13:13:51;;;;;;;4.45;3.47;;;32.70;24.80;;;;;;5054510;28;20485;-11
2022/04/29 13:16:19;;;;;;;4.88;3.88;;;32.80;24.60;;;;;;5054519;28;20098;-10
2022/04/29 13:18:46;;;;;;;5.13;3.90;;;32.90;24.10;;;;;;5055284;28;20020;-12
2022/04/29 13:21:13;;;;;;;3.58;3.28;;;33.00;24.40;;;;;;5054453;28;20504;-12
2022/04/29 13:23:45;;;;;;;4.53;3.33;;;33.10;24.10;;;;;;5054437;28;20078;-12
2022/04/29 13:26:13;;;;;;;4.95;3.78;;;33.10;24.10;;;;;;5054725;28;20032;-11
2022/04/29 13:28:41;;;;;;;5.15;3.47;;;32.90;23.90;;;;;;5054711;28;20082;-12